sensor_id;sensor_type;location;lat;lon;timestamp;P1;durP1;ratioP1;P2;durP2;ratioP2
5690;SDS011;2870;42.680;23.364;2024-01-06T00:01:25;77.97;;;42.60;;
5690;SDS011;2870;42.680;23.364;2024-01-06T00:03:52;97.90;;;45.07;;
5690;SDS011;2870;42.680;23.364;2024-01-06T00:06:19;78.20;;;39.60;;
5690;SDS011;2870;42.680;23.364;2024-01-06T00:08:46;68.10;;;39.90;;
5690;SDS011;2870;42.680;23.364;2024-01-06T00:11:18;61.63;;;34.47;;
5690;SDS011;2870;42.680;23.364;2024-01-06T00:13:45;64.83;;;33.73;;
5690;SDS011;2870;42.680;23.364;2024-01-06T00:16:13;75.77;;;36.30;;
5690;SDS011;2870;42.680;23.364;2024-01-06T00:18:42;55.00;;;33.83;;
5690;SDS011;2870;42.680;23.364;2024-01-06T00:21:09;69.40;;;36.47;;
5690;SDS011;2870;42.680;23.364;2024-01-06T00:23:36;64.80;;;34.57;;
5690;SDS011;2870;42.680;23.364;2024-01-06T00:26:03;77.63;;;34.47;;
5690;SDS011;2870;42.680;23.364;2024-01-06T00:28:30;74.37;;;33.67;;
5690;SDS011;2870;42.680;23.364;2024-01-06T00:30:57;64.70;;;34.67;;
5690;SDS011;2870;42.680;23.364;2024-01-06T00:33:25;78.90;;;34.70;;
5690;SDS011;2870;42.680;23.364;2024-01-06T00:35:51;64.13;;;34.67;;
5690;SDS011;2870;42.680;23.364;2024-01-06T00:38:20;62.17;;;33.90;;
5690;SDS011;2870;42.680;23.364;2024-01-06T00:40:47;64.57;;;32.43;;
5690;SDS011;2870;42.680;23.364;2024-01-06T00:43:13;51.27;;;32.00;;
5690;SDS011;2870;42.680;23.364;2024-01-06T00:45:40;65.37;;;34.80;;
5690;SDS011;2870;42.680;23.364;2024-01-06T00:48:07;70.10;;;34.20;;
5690;SDS011;2870;42.680;23.364;2024-01-06T00:50:35;68.97;;;36.80;;
5690;SDS011;2870;42.680;23.364;2024-01-06T00:53:02;68.47;;;36.10;;
5690;SDS011;2870;42.680;23.364;2024-01-06T00:55:29;69.47;;;37.60;;
5690;SDS011;2870;42.680;23.364;2024-01-06T00:57:55;67.43;;;38.23;;
5690;SDS011;2870;42.680;23.364;2024-01-06T01:00:22;67.67;;;39.43;;
5690;SDS011;2870;42.680;23.364;2024-01-06T01:02:49;82.03;;;41.17;;
5690;SDS011;2870;42.680;23.364;2024-01-06T01:05:16;77.47;;;40.20;;
5690;SDS011;2870;42.680;23.364;2024-01-06T01:07:44;70.00;;;37.43;;
5690;SDS011;2870;42.680;23.364;2024-01-06T01:10:11;75.57;;;39.00;;
5690;SDS011;2870;42.680;23.364;2024-01-06T01:12:38;65.43;;;36.87;;
5690;SDS011;2870;42.680;23.364;2024-01-06T01:15:05;71.27;;;39.20;;
5690;SDS011;2870;42.680;23.364;2024-01-06T01:17:33;93.20;;;38.53;;
5690;SDS011;2870;42.680;23.364;2024-01-06T01:19:59;60.23;;;37.97;;
5690;SDS011;2870;42.680;23.364;2024-01-06T01:22:26;73.80;;;41.77;;
5690;SDS011;2870;42.680;23.364;2024-01-06T01:24:54;71.83;;;39.33;;
5690;SDS011;2870;42.680;23.364;2024-01-06T01:27:21;75.10;;;40.63;;
5690;SDS011;2870;42.680;23.364;2024-01-06T01:29:48;72.37;;;40.17;;
5690;SDS011;2870;42.680;23.364;2024-01-06T01:32:17;75.03;;;42.20;;
5690;SDS011;2870;42.680;23.364;2024-01-06T01:34:45;77.37;;;40.60;;
5690;SDS011;2870;42.680;23.364;2024-01-06T01:37:12;71.70;;;40.10;;
5690;SDS011;2870;42.680;23.364;2024-01-06T01:39:38;74.10;;;39.53;;
5690;SDS011;2870;42.680;23.364;2024-01-06T01:42:06;77.83;;;39.63;;
5690;SDS011;2870;42.680;23.364;2024-01-06T01:44:33;84.00;;;41.27;;
5690;SDS011;2870;42.680;23.364;2024-01-06T01:47:00;70.87;;;38.77;;
5690;SDS011;2870;42.680;23.364;2024-01-06T01:49:27;76.53;;;40.80;;
5690;SDS011;2870;42.680;23.364;2024-01-06T01:51:54;77.07;;;41.97;;
5690;SDS011;2870;42.680;23.364;2024-01-06T01:54:20;78.90;;;42.00;;
5690;SDS011;2870;42.680;23.364;2024-01-06T01:56:47;95.13;;;41.70;;
5690;SDS011;2870;42.680;23.364;2024-01-06T01:59:16;72.37;;;42.70;;
5690;SDS011;2870;42.680;23.364;2024-01-06T02:01:44;86.70;;;40.07;;
5690;SDS011;2870;42.680;23.364;2024-01-06T02:04:11;77.97;;;40.97;;
5690;SDS011;2870;42.680;23.364;2024-01-06T02:06:38;68.83;;;41.33;;
5690;SDS011;2870;42.680;23.364;2024-01-06T02:09:05;73.93;;;42.13;;
5690;SDS011;2870;42.680;23.364;2024-01-06T02:11:32;75.77;;;41.37;;
5690;SDS011;2870;42.680;23.364;2024-01-06T02:13:59;90.33;;;44.63;;
5690;SDS011;2870;42.680;23.364;2024-01-06T02:16:27;81.50;;;47.07;;
5690;SDS011;2870;42.680;23.364;2024-01-06T02:18:54;84.27;;;51.50;;
5690;SDS011;2870;42.680;23.364;2024-01-06T02:21:23;91.10;;;49.00;;
5690;SDS011;2870;42.680;23.364;2024-01-06T02:23:51;104.90;;;54.10;;
5690;SDS011;2870;42.680;23.364;2024-01-06T02:26:18;95.80;;;52.07;;
5690;SDS011;2870;42.680;23.364;2024-01-06T02:28:45;97.13;;;51.87;;
5690;SDS011;2870;42.680;23.364;2024-01-06T02:31:13;95.57;;;54.80;;
5690;SDS011;2870;42.680;23.364;2024-01-06T02:33:40;109.63;;;52.33;;
5690;SDS011;2870;42.680;23.364;2024-01-06T02:36:06;87.53;;;47.83;;
5690;SDS011;2870;42.680;23.364;2024-01-06T02:38:33;92.77;;;49.70;;
5690;SDS011;2870;42.680;23.364;2024-01-06T02:41:02;89.90;;;44.23;;
5690;SDS011;2870;42.680;23.364;2024-01-06T02:43:29;66.07;;;37.07;;
5690;SDS011;2870;42.680;23.364;2024-01-06T02:45:55;59.60;;;35.23;;
5690;SDS011;2870;42.680;23.364;2024-01-06T02:48:22;54.97;;;31.50;;
5690;SDS011;2870;42.680;23.364;2024-01-06T02:50:49;52.70;;;30.70;;
5690;SDS011;2870;42.680;23.364;2024-01-06T02:53:15;51.97;;;30.37;;
5690;SDS011;2870;42.680;23.364;2024-01-06T02:55:42;50.37;;;30.80;;
5690;SDS011;2870;42.680;23.364;2024-01-06T02:58:10;54.70;;;28.77;;
5690;SDS011;2870;42.680;23.364;2024-01-06T03:03:07;45.70;;;26.60;;
5690;SDS011;2870;42.680;23.364;2024-01-06T03:05:33;49.03;;;25.73;;
5690;SDS011;2870;42.680;23.364;2024-01-06T03:08:02;46.27;;;26.60;;
5690;SDS011;2870;42.680;23.364;2024-01-06T03:10:29;40.80;;;23.37;;
5690;SDS011;2870;42.680;23.364;2024-01-06T03:12:56;41.77;;;25.40;;
5690;SDS011;2870;42.680;23.364;2024-01-06T03:15:24;39.53;;;22.07;;
5690;SDS011;2870;42.680;23.364;2024-01-06T03:17:51;44.93;;;23.00;;
5690;SDS011;2870;42.680;23.364;2024-01-06T03:20:18;36.80;;;21.43;;
5690;SDS011;2870;42.680;23.364;2024-01-06T03:22:45;40.20;;;22.77;;
5690;SDS011;2870;42.680;23.364;2024-01-06T03:25:12;35.60;;;21.20;;
5690;SDS011;2870;42.680;23.364;2024-01-06T03:27:38;37.43;;;22.47;;
5690;SDS011;2870;42.680;23.364;2024-01-06T03:30:06;39.47;;;22.17;;
5690;SDS011;2870;42.680;23.364;2024-01-06T03:32:34;34.80;;;21.97;;
5690;SDS011;2870;42.680;23.364;2024-01-06T03:35:01;48.33;;;23.30;;
5690;SDS011;2870;42.680;23.364;2024-01-06T03:37:28;39.87;;;24.33;;
5690;SDS011;2870;42.680;23.364;2024-01-06T03:39:55;35.83;;;21.60;;
5690;SDS011;2870;42.680;23.364;2024-01-06T03:42:21;33.97;;;20.73;;
5690;SDS011;2870;42.680;23.364;2024-01-06T03:44:48;41.33;;;24.00;;
5690;SDS011;2870;42.680;23.364;2024-01-06T03:47:15;44.27;;;20.87;;
5690;SDS011;2870;42.680;23.364;2024-01-06T03:49:44;49.63;;;23.13;;
5690;SDS011;2870;42.680;23.364;2024-01-06T03:52:11;35.20;;;21.70;;
5690;SDS011;2870;42.680;23.364;2024-01-06T03:54:39;32.60;;;19.33;;
5690;SDS011;2870;42.680;23.364;2024-01-06T03:57:05;34.53;;;20.77;;
5690;SDS011;2870;42.680;23.364;2024-01-06T03:59:32;43.47;;;23.87;;
5690;SDS011;2870;42.680;23.364;2024-01-06T04:01:59;54.07;;;29.77;;
5690;SDS011;2870;42.680;23.364;2024-01-06T04:04:26;57.03;;;33.27;;
5690;SDS011;2870;42.680;23.364;2024-01-06T04:06:54;45.13;;;26.73;;
5690;SDS011;2870;42.680;23.364;2024-01-06T04:09:20;50.37;;;30.37;;
5690;SDS011;2870;42.680;23.364;2024-01-06T04:11:47;55.37;;;32.57;;
5690;SDS011;2870;42.680;23.364;2024-01-06T04:14:14;54.20;;;30.90;;
5690;SDS011;2870;42.680;23.364;2024-01-06T04:16:40;58.27;;;31.30;;
5690;SDS011;2870;42.680;23.364;2024-01-06T04:19:07;60.40;;;33.30;;
5690;SDS011;2870;42.680;23.364;2024-01-06T04:21:36;59.03;;;31.87;;
5690;SDS011;2870;42.680;23.364;2024-01-06T04:24:04;51.83;;;31.37;;
5690;SDS011;2870;42.680;23.364;2024-01-06T04:26:31;49.80;;;30.13;;
5690;SDS011;2870;42.680;23.364;2024-01-06T04:28:58;47.53;;;26.60;;
5690;SDS011;2870;42.680;23.364;2024-01-06T04:31:25;46.73;;;26.53;;
5690;SDS011;2870;42.680;23.364;2024-01-06T04:33:52;55.57;;;26.10;;
5690;SDS011;2870;42.680;23.364;2024-01-06T04:36:18;42.53;;;24.80;;
5690;SDS011;2870;42.680;23.364;2024-01-06T04:38:45;40.73;;;23.03;;
5690;SDS011;2870;42.680;23.364;2024-01-06T04:41:13;33.13;;;20.87;;
5690;SDS011;2870;42.680;23.364;2024-01-06T04:43:40;34.77;;;19.83;;
5690;SDS011;2870;42.680;23.364;2024-01-06T04:46:07;31.63;;;18.57;;
5690;SDS011;2870;42.680;23.364;2024-01-06T04:48:33;23.73;;;14.50;;
5690;SDS011;2870;42.680;23.364;2024-01-06T04:51:00;23.40;;;13.60;;
5690;SDS011;2870;42.680;23.364;2024-01-06T04:53:28;17.97;;;12.20;;
5690;SDS011;2870;42.680;23.364;2024-01-06T04:55:55;36.93;;;13.27;;
5690;SDS011;2870;42.680;23.364;2024-01-06T04:58:23;22.90;;;13.50;;
5690;SDS011;2870;42.680;23.364;2024-01-06T05:00:50;20.23;;;11.73;;
5690;SDS011;2870;42.680;23.364;2024-01-06T05:03:17;24.53;;;13.43;;
5690;SDS011;2870;42.680;23.364;2024-01-06T05:05:44;18.07;;;11.50;;
5690;SDS011;2870;42.680;23.364;2024-01-06T05:08:11;19.50;;;12.33;;
5690;SDS011;2870;42.680;23.364;2024-01-06T05:10:37;19.00;;;13.40;;
5690;SDS011;2870;42.680;23.364;2024-01-06T05:13:04;13.80;;;10.43;;
5690;SDS011;2870;42.680;23.364;2024-01-06T05:15:32;23.77;;;12.23;;
5690;SDS011;2870;42.680;23.364;2024-01-06T05:17:59;19.13;;;13.10;;
5690;SDS011;2870;42.680;23.364;2024-01-06T05:20:26;20.50;;;11.97;;
5690;SDS011;2870;42.680;23.364;2024-01-06T05:22:52;18.90;;;11.67;;
5690;SDS011;2870;42.680;23.364;2024-01-06T05:25:19;19.97;;;11.47;;
5690;SDS011;2870;42.680;23.364;2024-01-06T05:27:46;26.70;;;12.60;;
5690;SDS011;2870;42.680;23.364;2024-01-06T05:30:13;16.70;;;11.03;;
5690;SDS011;2870;42.680;23.364;2024-01-06T05:32:41;14.43;;;10.17;;
5690;SDS011;2870;42.680;23.364;2024-01-06T05:35:08;22.67;;;10.07;;
5690;SDS011;2870;42.680;23.364;2024-01-06T05:37:35;14.27;;;9.00;;
5690;SDS011;2870;42.680;23.364;2024-01-06T05:40:02;15.97;;;8.70;;
5690;SDS011;2870;42.680;23.364;2024-01-06T05:42:30;11.07;;;8.27;;
5690;SDS011;2870;42.680;23.364;2024-01-06T05:44:58;16.37;;;9.50;;
5690;SDS011;2870;42.680;23.364;2024-01-06T05:47:24;12.80;;;9.30;;
5690;SDS011;2870;42.680;23.364;2024-01-06T05:49:52;17.93;;;11.03;;
5690;SDS011;2870;42.680;23.364;2024-01-06T05:52:19;13.27;;;8.70;;
5690;SDS011;2870;42.680;23.364;2024-01-06T05:54:46;12.63;;;8.67;;
5690;SDS011;2870;42.680;23.364;2024-01-06T05:57:13;15.70;;;9.27;;
5690;SDS011;2870;42.680;23.364;2024-01-06T05:59:39;12.60;;;9.00;;
5690;SDS011;2870;42.680;23.364;2024-01-06T06:02:06;13.37;;;8.80;;
5690;SDS011;2870;42.680;23.364;2024-01-06T06:04:33;15.53;;;12.17;;
5690;SDS011;2870;42.680;23.364;2024-01-06T06:07:02;15.20;;;8.77;;
5690;SDS011;2870;42.680;23.364;2024-01-06T06:09:29;12.93;;;9.00;;
5690;SDS011;2870;42.680;23.364;2024-01-06T06:11:55;14.23;;;9.43;;
5690;SDS011;2870;42.680;23.364;2024-01-06T06:14:22;13.60;;;8.83;;
5690;SDS011;2870;42.680;23.364;2024-01-06T06:16:49;11.50;;;8.03;;
5690;SDS011;2870;42.680;23.364;2024-01-06T06:19:16;11.90;;;8.53;;
5690;SDS011;2870;42.680;23.364;2024-01-06T06:21:43;10.60;;;7.70;;
5690;SDS011;2870;42.680;23.364;2024-01-06T06:24:11;10.97;;;8.83;;
5690;SDS011;2870;42.680;23.364;2024-01-06T06:26:38;11.23;;;8.20;;
5690;SDS011;2870;42.680;23.364;2024-01-06T06:29:05;21.53;;;12.50;;
5690;SDS011;2870;42.680;23.364;2024-01-06T06:31:32;15.87;;;9.60;;
5690;SDS011;2870;42.680;23.364;2024-01-06T06:33:59;11.70;;;8.77;;
5690;SDS011;2870;42.680;23.364;2024-01-06T06:36:25;16.60;;;9.30;;
5690;SDS011;2870;42.680;23.364;2024-01-06T06:38:52;11.77;;;8.30;;
5690;SDS011;2870;42.680;23.364;2024-01-06T06:41:20;13.23;;;8.13;;
5690;SDS011;2870;42.680;23.364;2024-01-06T06:43:47;13.27;;;8.23;;
5690;SDS011;2870;42.680;23.364;2024-01-06T06:46:14;16.07;;;8.83;;
5690;SDS011;2870;42.680;23.364;2024-01-06T06:48:41;13.40;;;9.10;;
5690;SDS011;2870;42.680;23.364;2024-01-06T06:51:08;14.00;;;9.83;;
5690;SDS011;2870;42.680;23.364;2024-01-06T06:53:35;16.73;;;10.10;;
5690;SDS011;2870;42.680;23.364;2024-01-06T06:56:02;13.17;;;8.23;;
5690;SDS011;2870;42.680;23.364;2024-01-06T06:58:31;12.40;;;8.70;;
5690;SDS011;2870;42.680;23.364;2024-01-06T07:00:58;12.40;;;8.40;;
5690;SDS011;2870;42.680;23.364;2024-01-06T07:03:25;20.57;;;11.27;;
5690;SDS011;2870;42.680;23.364;2024-01-06T07:05:52;23.13;;;10.23;;
5690;SDS011;2870;42.680;23.364;2024-01-06T07:08:19;23.60;;;10.30;;
5690;SDS011;2870;42.680;23.364;2024-01-06T07:10:46;16.17;;;9.37;;
5690;SDS011;2870;42.680;23.364;2024-01-06T07:13:12;13.27;;;8.40;;
5690;SDS011;2870;42.680;23.364;2024-01-06T07:15:41;18.33;;;10.00;;
5690;SDS011;2870;42.680;23.364;2024-01-06T07:18:07;19.60;;;8.90;;
5690;SDS011;2870;42.680;23.364;2024-01-06T07:20:34;16.57;;;10.03;;
5690;SDS011;2870;42.680;23.364;2024-01-06T07:23:02;20.63;;;9.60;;
5690;SDS011;2870;42.680;23.364;2024-01-06T07:25:29;15.70;;;8.70;;
5690;SDS011;2870;42.680;23.364;2024-01-06T07:27:56;22.27;;;10.80;;
5690;SDS011;2870;42.680;23.364;2024-01-06T07:30:23;24.83;;;10.90;;
5690;SDS011;2870;42.680;23.364;2024-01-06T07:32:51;16.90;;;10.57;;
5690;SDS011;2870;42.680;23.364;2024-01-06T07:35:18;19.03;;;9.53;;
5690;SDS011;2870;42.680;23.364;2024-01-06T07:37:45;14.23;;;10.47;;
5690;SDS011;2870;42.680;23.364;2024-01-06T07:40:12;17.03;;;10.27;;
5690;SDS011;2870;42.680;23.364;2024-01-06T07:42:41;14.90;;;10.13;;
5690;SDS011;2870;42.680;23.364;2024-01-06T07:45:08;15.40;;;10.20;;
5690;SDS011;2870;42.680;23.364;2024-01-06T07:47:35;21.23;;;10.33;;
5690;SDS011;2870;42.680;23.364;2024-01-06T07:50:04;16.43;;;9.80;;
5690;SDS011;2870;42.680;23.364;2024-01-06T07:52:32;28.60;;;11.57;;
5690;SDS011;2870;42.680;23.364;2024-01-06T07:54:59;26.17;;;11.20;;
5690;SDS011;2870;42.680;23.364;2024-01-06T07:57:25;17.53;;;10.40;;
5690;SDS011;2870;42.680;23.364;2024-01-06T07:59:52;18.33;;;11.20;;
5690;SDS011;2870;42.680;23.364;2024-01-06T08:02:19;16.67;;;11.10;;
5690;SDS011;2870;42.680;23.364;2024-01-06T08:04:46;20.60;;;11.83;;
5690;SDS011;2870;42.680;23.364;2024-01-06T08:07:14;19.97;;;10.37;;
5690;SDS011;2870;42.680;23.364;2024-01-06T08:09:40;20.93;;;11.03;;
5690;SDS011;2870;42.680;23.364;2024-01-06T08:12:07;17.70;;;11.33;;
5690;SDS011;2870;42.680;23.364;2024-01-06T08:14:34;21.43;;;13.13;;
5690;SDS011;2870;42.680;23.364;2024-01-06T08:17:01;26.80;;;10.70;;
5690;SDS011;2870;42.680;23.364;2024-01-06T08:19:28;24.00;;;12.43;;
5690;SDS011;2870;42.680;23.364;2024-01-06T08:21:57;25.73;;;15.00;;
5690;SDS011;2870;42.680;23.364;2024-01-06T08:24:25;53.50;;;31.83;;
5690;SDS011;2870;42.680;23.364;2024-01-06T08:26:52;46.13;;;28.63;;
5690;SDS011;2870;42.680;23.364;2024-01-06T08:29:19;69.70;;;38.93;;
5690;SDS011;2870;42.680;23.364;2024-01-06T08:31:45;65.80;;;39.13;;
5690;SDS011;2870;42.680;23.364;2024-01-06T08:34:12;68.13;;;39.07;;
5690;SDS011;2870;42.680;23.364;2024-01-06T08:36:39;68.30;;;41.73;;
5690;SDS011;2870;42.680;23.364;2024-01-06T08:39:07;71.87;;;42.33;;
5690;SDS011;2870;42.680;23.364;2024-01-06T08:41:36;82.50;;;47.43;;
5690;SDS011;2870;42.680;23.364;2024-01-06T08:44:03;81.10;;;46.97;;
5690;SDS011;2870;42.680;23.364;2024-01-06T08:46:30;75.17;;;44.97;;
5690;SDS011;2870;42.680;23.364;2024-01-06T08:48:56;80.37;;;45.10;;
5690;SDS011;2870;42.680;23.364;2024-01-06T08:51:23;74.30;;;45.73;;
5690;SDS011;2870;42.680;23.364;2024-01-06T08:53:51;67.10;;;43.00;;
5690;SDS011;2870;42.680;23.364;2024-01-06T08:56:18;60.53;;;39.07;;
5690;SDS011;2870;42.680;23.364;2024-01-06T08:58:46;59.87;;;36.30;;
5690;SDS011;2870;42.680;23.364;2024-01-06T09:01:13;48.63;;;31.87;;
5690;SDS011;2870;42.680;23.364;2024-01-06T09:03:40;55.63;;;34.33;;
5690;SDS011;2870;42.680;23.364;2024-01-06T09:06:06;40.27;;;26.83;;
5690;SDS011;2870;42.680;23.364;2024-01-06T09:08:33;41.73;;;26.37;;
5690;SDS011;2870;42.680;23.364;2024-01-06T09:11:00;40.63;;;22.13;;
5690;SDS011;2870;42.680;23.364;2024-01-06T09:13:27;25.80;;;17.70;;
5690;SDS011;2870;42.680;23.364;2024-01-06T09:15:55;28.20;;;18.87;;
5690;SDS011;2870;42.680;23.364;2024-01-06T09:18:22;26.33;;;16.20;;
5690;SDS011;2870;42.680;23.364;2024-01-06T09:20:48;27.47;;;16.17;;
5690;SDS011;2870;42.680;23.364;2024-01-06T09:23:16;31.80;;;17.83;;
5690;SDS011;2870;42.680;23.364;2024-01-06T09:25:42;34.53;;;19.07;;
5690;SDS011;2870;42.680;23.364;2024-01-06T09:28:09;28.60;;;19.10;;
5690;SDS011;2870;42.680;23.364;2024-01-06T09:30:36;30.30;;;18.60;;
5690;SDS011;2870;42.680;23.364;2024-01-06T09:33:05;30.40;;;20.33;;
5690;SDS011;2870;42.680;23.364;2024-01-06T09:35:33;32.47;;;18.17;;
5690;SDS011;2870;42.680;23.364;2024-01-06T09:38:00;35.20;;;19.13;;
5690;SDS011;2870;42.680;23.364;2024-01-06T09:40:26;33.73;;;19.67;;
5690;SDS011;2870;42.680;23.364;2024-01-06T09:42:57;40.73;;;17.90;;
5690;SDS011;2870;42.680;23.364;2024-01-06T09:45:24;29.60;;;17.40;;
5690;SDS011;2870;42.680;23.364;2024-01-06T09:47:51;30.37;;;19.37;;
5690;SDS011;2870;42.680;23.364;2024-01-06T09:50:19;32.70;;;19.10;;
5690;SDS011;2870;42.680;23.364;2024-01-06T09:52:47;27.37;;;18.70;;
5690;SDS011;2870;42.680;23.364;2024-01-06T09:55:19;44.87;;;20.87;;
5690;SDS011;2870;42.680;23.364;2024-01-06T09:57:50;33.03;;;19.10;;
5690;SDS011;2870;42.680;23.364;2024-01-06T10:00:17;35.33;;;19.97;;
5690;SDS011;2870;42.680;23.364;2024-01-06T10:02:45;44.00;;;18.87;;
5690;SDS011;2870;42.680;23.364;2024-01-06T10:05:14;31.30;;;18.37;;
5690;SDS011;2870;42.680;23.364;2024-01-06T10:07:43;34.80;;;18.53;;
5690;SDS011;2870;42.680;23.364;2024-01-06T10:10:10;31.27;;;16.93;;
5690;SDS011;2870;42.680;23.364;2024-01-06T10:12:37;39.30;;;19.03;;
5690;SDS011;2870;42.680;23.364;2024-01-06T10:15:04;33.20;;;18.07;;
5690;SDS011;2870;42.680;23.364;2024-01-06T10:17:32;42.20;;;21.53;;
5690;SDS011;2870;42.680;23.364;2024-01-06T10:19:59;43.87;;;25.07;;
5690;SDS011;2870;42.680;23.364;2024-01-06T10:22:26;42.33;;;25.53;;
5690;SDS011;2870;42.680;23.364;2024-01-06T10:24:55;48.43;;;26.70;;
5690;SDS011;2870;42.680;23.364;2024-01-06T10:27:22;54.60;;;29.70;;
5690;SDS011;2870;42.680;23.364;2024-01-06T10:29:49;50.33;;;30.83;;
5690;SDS011;2870;42.680;23.364;2024-01-06T10:32:16;41.83;;;25.87;;
5690;SDS011;2870;42.680;23.364;2024-01-06T10:34:43;47.20;;;25.70;;
5690;SDS011;2870;42.680;23.364;2024-01-06T10:37:10;45.90;;;27.20;;
5690;SDS011;2870;42.680;23.364;2024-01-06T10:39:37;44.73;;;24.17;;
5690;SDS011;2870;42.680;23.364;2024-01-06T10:42:05;40.00;;;24.40;;
5690;SDS011;2870;42.680;23.364;2024-01-06T10:44:33;38.13;;;23.23;;
5690;SDS011;2870;42.680;23.364;2024-01-06T10:47:00;40.40;;;22.00;;
5690;SDS011;2870;42.680;23.364;2024-01-06T10:49:30;40.23;;;20.03;;
5690;SDS011;2870;42.680;23.364;2024-01-06T10:51:57;38.83;;;20.40;;
5690;SDS011;2870;42.680;23.364;2024-01-06T10:54:25;44.37;;;20.63;;
5690;SDS011;2870;42.680;23.364;2024-01-06T10:56:54;34.90;;;19.10;;
5690;SDS011;2870;42.680;23.364;2024-01-06T10:59:24;38.70;;;17.70;;
5690;SDS011;2870;42.680;23.364;2024-01-06T11:01:55;29.13;;;16.63;;
5690;SDS011;2870;42.680;23.364;2024-01-06T11:04:23;24.07;;;16.20;;
5690;SDS011;2870;42.680;23.364;2024-01-06T11:06:50;27.03;;;16.13;;
5690;SDS011;2870;42.680;23.364;2024-01-06T11:09:19;26.40;;;14.90;;
5690;SDS011;2870;42.680;23.364;2024-01-06T11:11:48;25.70;;;15.77;;
5690;SDS011;2870;42.680;23.364;2024-01-06T11:14:17;21.33;;;13.93;;
5690;SDS011;2870;42.680;23.364;2024-01-06T11:16:46;28.67;;;15.90;;
5690;SDS011;2870;42.680;23.364;2024-01-06T11:22:23;24.53;;;13.97;;
5690;SDS011;2870;42.680;23.364;2024-01-06T11:24:52;28.10;;;12.97;;
5690;SDS011;2870;42.680;23.364;2024-01-06T11:27:21;23.60;;;13.57;;
5690;SDS011;2870;42.680;23.364;2024-01-06T11:29:51;23.07;;;13.27;;
5690;SDS011;2870;42.680;23.364;2024-01-06T11:32:24;28.07;;;12.33;;
5690;SDS011;2870;42.680;23.364;2024-01-06T11:34:53;33.83;;;13.33;;
5690;SDS011;2870;42.680;23.364;2024-01-06T11:37:24;18.13;;;11.87;;
5690;SDS011;2870;42.680;23.364;2024-01-06T11:39:52;19.70;;;11.97;;
5690;SDS011;2870;42.680;23.364;2024-01-06T11:42:19;19.53;;;13.00;;
5690;SDS011;2870;42.680;23.364;2024-01-06T11:44:49;25.23;;;13.10;;
5690;SDS011;2870;42.680;23.364;2024-01-06T11:47:17;19.30;;;12.60;;
5690;SDS011;2870;42.680;23.364;2024-01-06T11:49:50;24.53;;;12.90;;
5690;SDS011;2870;42.680;23.364;2024-01-06T11:52:23;19.23;;;12.17;;
5690;SDS011;2870;42.680;23.364;2024-01-06T11:54:52;21.67;;;12.50;;
5690;SDS011;2870;42.680;23.364;2024-01-06T11:57:20;20.00;;;13.23;;
5690;SDS011;2870;42.680;23.364;2024-01-06T11:59:47;24.90;;;12.83;;
5690;SDS011;2870;42.680;23.364;2024-01-06T12:02:17;25.23;;;14.20;;
5690;SDS011;2870;42.680;23.364;2024-01-06T12:04:47;25.63;;;14.90;;
5690;SDS011;2870;42.680;23.364;2024-01-06T12:07:17;20.57;;;13.80;;
5690;SDS011;2870;42.680;23.364;2024-01-06T12:09:44;23.30;;;13.87;;
5690;SDS011;2870;42.680;23.364;2024-01-06T12:12:11;25.03;;;14.13;;
5690;SDS011;2870;42.680;23.364;2024-01-06T12:14:42;22.40;;;13.10;;
5690;SDS011;2870;42.680;23.364;2024-01-06T12:17:09;22.97;;;13.37;;
5690;SDS011;2870;42.680;23.364;2024-01-06T12:19:38;19.93;;;11.67;;
5690;SDS011;2870;42.680;23.364;2024-01-06T12:22:09;20.03;;;11.80;;
5690;SDS011;2870;42.680;23.364;2024-01-06T12:24:38;16.93;;;11.23;;
5690;SDS011;2870;42.680;23.364;2024-01-06T12:27:06;21.03;;;11.40;;
5690;SDS011;2870;42.680;23.364;2024-01-06T12:29:34;17.30;;;12.60;;
5690;SDS011;2870;42.680;23.364;2024-01-06T12:32:05;23.60;;;10.43;;
5690;SDS011;2870;42.680;23.364;2024-01-06T12:34:32;20.93;;;13.10;;
5690;SDS011;2870;42.680;23.364;2024-01-06T12:36:59;24.17;;;13.40;;
5690;SDS011;2870;42.680;23.364;2024-01-06T12:39:29;18.30;;;12.77;;
5690;SDS011;2870;42.680;23.364;2024-01-06T12:41:56;23.53;;;12.30;;
5690;SDS011;2870;42.680;23.364;2024-01-06T12:44:25;19.90;;;11.60;;
5690;SDS011;2870;42.680;23.364;2024-01-06T12:46:51;23.63;;;12.57;;
5690;SDS011;2870;42.680;23.364;2024-01-06T12:49:19;19.20;;;11.90;;
5690;SDS011;2870;42.680;23.364;2024-01-06T12:51:45;18.17;;;12.10;;
5690;SDS011;2870;42.680;23.364;2024-01-06T12:54:12;18.03;;;11.13;;
5690;SDS011;2870;42.680;23.364;2024-01-06T12:56:40;20.23;;;13.03;;
5690;SDS011;2870;42.680;23.364;2024-01-06T12:59:07;23.63;;;12.27;;
5690;SDS011;2870;42.680;23.364;2024-01-06T13:01:34;19.20;;;12.50;;
5690;SDS011;2870;42.680;23.364;2024-01-06T13:04:00;19.43;;;11.57;;
5690;SDS011;2870;42.680;23.364;2024-01-06T13:06:27;21.93;;;12.07;;
5690;SDS011;2870;42.680;23.364;2024-01-06T15:09:37;33.07;;;19.50;;
5690;SDS011;2870;42.680;23.364;2024-01-06T15:12:05;28.53;;;15.60;;
5690;SDS011;2870;42.680;23.364;2024-01-06T15:14:32;31.50;;;14.30;;
5690;SDS011;2870;42.680;23.364;2024-01-06T15:16:59;38.30;;;15.30;;
5690;SDS011;2870;42.680;23.364;2024-01-06T15:19:26;32.60;;;14.37;;
5690;SDS011;2870;42.680;23.364;2024-01-06T15:21:55;25.90;;;15.73;;
5690;SDS011;2870;42.680;23.364;2024-01-06T15:24:21;30.73;;;15.80;;
5690;SDS011;2870;42.680;23.364;2024-01-06T15:26:50;28.73;;;15.43;;
5690;SDS011;2870;42.680;23.364;2024-01-06T15:29:17;31.50;;;16.73;;
5690;SDS011;2870;42.680;23.364;2024-01-06T15:31:44;28.63;;;15.60;;
5690;SDS011;2870;42.680;23.364;2024-01-06T15:34:11;36.33;;;18.00;;
5690;SDS011;2870;42.680;23.364;2024-01-06T15:36:38;31.43;;;15.70;;
5690;SDS011;2870;42.680;23.364;2024-01-06T15:39:05;34.90;;;16.60;;
5690;SDS011;2870;42.680;23.364;2024-01-06T15:41:31;27.77;;;16.67;;
5690;SDS011;2870;42.680;23.364;2024-01-06T15:44:00;35.97;;;16.50;;
5690;SDS011;2870;42.680;23.364;2024-01-06T15:46:26;27.80;;;14.50;;
5690;SDS011;2870;42.680;23.364;2024-01-06T15:48:53;36.30;;;15.23;;
5690;SDS011;2870;42.680;23.364;2024-01-06T15:51:20;36.23;;;14.90;;
5690;SDS011;2870;42.680;23.364;2024-01-06T15:53:48;37.57;;;15.63;;
5690;SDS011;2870;42.680;23.364;2024-01-06T15:56:14;33.83;;;16.60;;
5690;SDS011;2870;42.680;23.364;2024-01-06T15:58:41;35.13;;;17.93;;
5690;SDS011;2870;42.680;23.364;2024-01-06T16:01:09;35.63;;;17.73;;
5690;SDS011;2870;42.680;23.364;2024-01-06T16:03:36;41.63;;;21.30;;
5690;SDS011;2870;42.680;23.364;2024-01-06T16:06:03;45.23;;;20.00;;
5690;SDS011;2870;42.680;23.364;2024-01-06T16:08:30;39.63;;;23.13;;
5690;SDS011;2870;42.680;23.364;2024-01-06T16:10:57;44.53;;;23.70;;
5690;SDS011;2870;42.680;23.364;2024-01-06T16:13:24;43.83;;;21.57;;
5690;SDS011;2870;42.680;23.364;2024-01-06T16:15:51;55.13;;;23.50;;
5690;SDS011;2870;42.680;23.364;2024-01-06T16:18:19;53.50;;;25.37;;
5690;SDS011;2870;42.680;23.364;2024-01-06T16:20:46;46.17;;;27.00;;
5690;SDS011;2870;42.680;23.364;2024-01-06T16:23:13;53.87;;;29.00;;
5690;SDS011;2870;42.680;23.364;2024-01-06T16:25:42;72.90;;;35.83;;
5690;SDS011;2870;42.680;23.364;2024-01-06T16:28:10;63.80;;;33.80;;
5690;SDS011;2870;42.680;23.364;2024-01-06T16:30:37;68.27;;;35.23;;
5690;SDS011;2870;42.680;23.364;2024-01-06T16:33:04;65.03;;;35.20;;
5690;SDS011;2870;42.680;23.364;2024-01-06T16:35:33;65.10;;;40.10;;
5690;SDS011;2870;42.680;23.364;2024-01-06T16:38:00;74.00;;;38.73;;
5690;SDS011;2870;42.680;23.364;2024-01-06T16:40:27;76.03;;;37.80;;
5690;SDS011;2870;42.680;23.364;2024-01-06T16:42:54;74.53;;;40.53;;